sensor_id;sensor_type;location;lat;lon;timestamp;P1;durP1;ratioP1;P2;durP2;ratioP2
84307;SDS011;74486;52.070;5.128;2023-12-14T00:01:49;20.95;;;8.30;;
84307;SDS011;74486;52.070;5.128;2023-12-14T00:04:15;19.85;;;8.48;;
84307;SDS011;74486;52.070;5.128;2023-12-14T00:06:40;16.88;;;7.80;;
84307;SDS011;74486;52.070;5.128;2023-12-14T00:09:06;17.20;;;8.35;;
84307;SDS011;74486;52.070;5.128;2023-12-14T00:11:31;19.85;;;9.25;;
84307;SDS011;74486;52.070;5.128;2023-12-14T00:13:58;19.58;;;8.40;;
84307;SDS011;74486;52.070;5.128;2023-12-14T00:16:23;23.17;;;9.07;;
84307;SDS011;74486;52.070;5.128;2023-12-14T00:18:49;20.90;;;8.63;;
84307;SDS011;74486;52.070;5.128;2023-12-14T00:21:14;17.52;;;8.85;;
84307;SDS011;74486;52.070;5.128;2023-12-14T00:23:40;20.27;;;9.15;;
84307;SDS011;74486;52.070;5.128;2023-12-14T00:26:06;17.63;;;9.05;;
84307;SDS011;74486;52.070;5.128;2023-12-14T00:28:31;17.75;;;9.02;;
84307;SDS011;74486;52.070;5.128;2023-12-14T00:30:58;14.90;;;8.25;;
84307;SDS011;74486;52.070;5.128;2023-12-14T00:33:23;18.38;;;8.05;;
84307;SDS011;74486;52.070;5.128;2023-12-14T00:35:49;17.60;;;8.52;;
84307;SDS011;74486;52.070;5.128;2023-12-14T00:38:14;16.52;;;8.73;;
84307;SDS011;74486;52.070;5.128;2023-12-14T00:40:40;19.58;;;8.85;;
84307;SDS011;74486;52.070;5.128;2023-12-14T00:43:05;14.30;;;7.85;;
84307;SDS011;74486;52.070;5.128;2023-12-14T00:45:31;15.20;;;8.23;;
84307;SDS011;74486;52.070;5.128;2023-12-14T00:47:58;15.48;;;7.95;;
84307;SDS011;74486;52.070;5.128;2023-12-14T00:50:23;18.15;;;8.20;;
84307;SDS011;74486;52.070;5.128;2023-12-14T00:52:49;16.85;;;7.75;;
84307;SDS011;74486;52.070;5.128;2023-12-14T00:55:14;15.18;;;7.75;;
84307;SDS011;74486;52.070;5.128;2023-12-14T00:57:40;15.57;;;7.85;;
84307;SDS011;74486;52.070;5.128;2023-12-14T01:00:06;15.02;;;7.20;;
84307;SDS011;74486;52.070;5.128;2023-12-14T01:02:32;13.63;;;7.18;;
84307;SDS011;74486;52.070;5.128;2023-12-14T01:04:58;17.30;;;8.15;;
84307;SDS011;74486;52.070;5.128;2023-12-14T01:07:24;14.30;;;8.05;;
84307;SDS011;74486;52.070;5.128;2023-12-14T01:09:49;18.20;;;7.72;;
84307;SDS011;74486;52.070;5.128;2023-12-14T01:12:15;18.77;;;8.65;;
84307;SDS011;74486;52.070;5.128;2023-12-14T01:14:40;15.68;;;7.97;;
84307;SDS011;74486;52.070;5.128;2023-12-14T01:17:06;13.75;;;7.47;;
84307;SDS011;74486;52.070;5.128;2023-12-14T01:19:31;16.98;;;8.18;;
84307;SDS011;74486;52.070;5.128;2023-12-14T01:21:58;18.38;;;7.70;;
84307;SDS011;74486;52.070;5.128;2023-12-14T01:24:24;14.65;;;7.63;;
84307;SDS011;74486;52.070;5.128;2023-12-14T01:26:49;15.40;;;7.70;;
84307;SDS011;74486;52.070;5.128;2023-12-14T01:29:15;17.63;;;8.30;;
84307;SDS011;74486;52.070;5.128;2023-12-14T01:31:40;14.18;;;7.75;;
84307;SDS011;74486;52.070;5.128;2023-12-14T01:34:06;14.90;;;7.85;;
84307;SDS011;74486;52.070;5.128;2023-12-14T01:36:31;15.00;;;7.32;;
84307;SDS011;74486;52.070;5.128;2023-12-14T01:38:58;15.77;;;7.28;;
84307;SDS011;74486;52.070;5.128;2023-12-14T01:41:24;13.80;;;7.20;;
84307;SDS011;74486;52.070;5.128;2023-12-14T01:43:50;19.13;;;8.65;;
84307;SDS011;74486;52.070;5.128;2023-12-14T01:46:15;18.60;;;7.90;;
84307;SDS011;74486;52.070;5.128;2023-12-14T01:48:40;15.50;;;7.97;;
84307;SDS011;74486;52.070;5.128;2023-12-14T01:51:06;18.92;;;8.65;;
84307;SDS011;74486;52.070;5.128;2023-12-14T01:53:31;17.17;;;7.85;;
84307;SDS011;74486;52.070;5.128;2023-12-14T01:55:58;14.82;;;7.80;;
84307;SDS011;74486;52.070;5.128;2023-12-14T01:58:24;17.42;;;8.93;;
84307;SDS011;74486;52.070;5.128;2023-12-14T02:00:52;15.52;;;8.95;;
84307;SDS011;74486;52.070;5.128;2023-12-14T02:03:28;14.32;;;7.35;;
84307;SDS011;74486;52.070;5.128;2023-12-14T02:05:53;17.77;;;9.70;;
84307;SDS011;74486;52.070;5.128;2023-12-14T02:08:19;15.48;;;8.02;;
84307;SDS011;74486;52.070;5.128;2023-12-14T02:10:45;15.13;;;7.70;;
84307;SDS011;74486;52.070;5.128;2023-12-14T02:13:12;15.52;;;7.38;;
84307;SDS011;74486;52.070;5.128;2023-12-14T02:15:38;17.05;;;7.75;;
84307;SDS011;74486;52.070;5.128;2023-12-14T02:18:04;16.52;;;8.15;;
84307;SDS011;74486;52.070;5.128;2023-12-14T02:20:29;20.38;;;9.77;;
84307;SDS011;74486;52.070;5.128;2023-12-14T02:23:02;16.15;;;7.78;;
84307;SDS011;74486;52.070;5.128;2023-12-14T02:25:28;13.30;;;7.25;;
84307;SDS011;74486;52.070;5.128;2023-12-14T02:27:53;16.75;;;8.52;;
84307;SDS011;74486;52.070;5.128;2023-12-14T02:30:19;16.13;;;7.57;;
84307;SDS011;74486;52.070;5.128;2023-12-14T02:32:45;17.25;;;8.55;;
84307;SDS011;74486;52.070;5.128;2023-12-14T02:35:11;18.50;;;8.40;;
84307;SDS011;74486;52.070;5.128;2023-12-14T02:37:36;19.40;;;9.35;;
84307;SDS011;74486;52.070;5.128;2023-12-14T02:40:04;19.55;;;9.45;;
84307;SDS011;74486;52.070;5.128;2023-12-14T02:44:55;18.67;;;9.23;;
84307;SDS011;74486;52.070;5.128;2023-12-14T02:47:21;19.45;;;8.90;;
84307;SDS011;74486;52.070;5.128;2023-12-14T02:49:46;21.67;;;8.63;;
84307;SDS011;74486;52.070;5.128;2023-12-14T02:52:12;18.90;;;9.05;;
84307;SDS011;74486;52.070;5.128;2023-12-14T02:54:38;24.13;;;9.23;;
84307;SDS011;74486;52.070;5.128;2023-12-14T02:57:06;19.05;;;9.85;;
84307;SDS011;74486;52.070;5.128;2023-12-14T02:59:32;21.17;;;8.50;;
84307;SDS011;74486;52.070;5.128;2023-12-14T03:01:58;15.70;;;8.23;;
84307;SDS011;74486;52.070;5.128;2023-12-14T03:04:23;20.08;;;9.70;;
84307;SDS011;74486;52.070;5.128;2023-12-14T03:06:49;18.63;;;8.45;;
84307;SDS011;74486;52.070;5.128;2023-12-14T03:09:15;18.67;;;8.98;;
84307;SDS011;74486;52.070;5.128;2023-12-14T03:11:40;18.55;;;8.95;;
84307;SDS011;74486;52.070;5.128;2023-12-14T03:14:07;19.58;;;9.07;;
84307;SDS011;74486;52.070;5.128;2023-12-14T03:16:33;20.02;;;7.90;;
84307;SDS011;74486;52.070;5.128;2023-12-14T03:18:58;21.13;;;9.60;;
84307;SDS011;74486;52.070;5.128;2023-12-14T03:21:24;18.25;;;8.65;;
84307;SDS011;74486;52.070;5.128;2023-12-14T03:23:49;18.77;;;8.10;;
84307;SDS011;74486;52.070;5.128;2023-12-14T03:26:16;17.50;;;8.18;;
84307;SDS011;74486;52.070;5.128;2023-12-14T03:28:42;17.00;;;7.85;;
84307;SDS011;74486;52.070;5.128;2023-12-14T03:31:10;16.95;;;8.18;;
84307;SDS011;74486;52.070;5.128;2023-12-14T03:33:37;21.50;;;8.23;;
84307;SDS011;74486;52.070;5.128;2023-12-14T03:36:03;17.80;;;8.63;;
84307;SDS011;74486;52.070;5.128;2023-12-14T03:38:29;20.40;;;8.80;;
84307;SDS011;74486;52.070;5.128;2023-12-14T03:40:55;20.33;;;8.55;;
84307;SDS011;74486;52.070;5.128;2023-12-14T03:43:21;20.42;;;8.45;;
84307;SDS011;74486;52.070;5.128;2023-12-14T03:45:46;18.10;;;7.43;;
84307;SDS011;74486;52.070;5.128;2023-12-14T03:48:13;20.33;;;8.25;;
84307;SDS011;74486;52.070;5.128;2023-12-14T03:50:39;22.58;;;9.02;;
84307;SDS011;74486;52.070;5.128;2023-12-14T03:53:04;18.20;;;7.97;;
84307;SDS011;74486;52.070;5.128;2023-12-14T03:55:30;15.38;;;7.65;;
84307;SDS011;74486;52.070;5.128;2023-12-14T03:57:56;16.30;;;7.25;;
84307;SDS011;74486;52.070;5.128;2023-12-14T04:00:21;15.52;;;8.13;;
84307;SDS011;74486;52.070;5.128;2023-12-14T04:02:47;18.98;;;7.60;;
84307;SDS011;74486;52.070;5.128;2023-12-14T04:05:14;20.23;;;7.82;;
84307;SDS011;74486;52.070;5.128;2023-12-14T04:07:39;19.33;;;6.80;;
84307;SDS011;74486;52.070;5.128;2023-12-14T04:10:05;13.52;;;6.38;;
84307;SDS011;74486;52.070;5.128;2023-12-14T04:12:31;17.83;;;6.72;;
84307;SDS011;74486;52.070;5.128;2023-12-14T04:14:57;15.15;;;6.60;;
84307;SDS011;74486;52.070;5.128;2023-12-14T04:17:22;18.33;;;7.40;;
84307;SDS011;74486;52.070;5.128;2023-12-14T04:19:48;14.85;;;6.32;;
84307;SDS011;74486;52.070;5.128;2023-12-14T04:22:15;14.38;;;6.03;;
84307;SDS011;74486;52.070;5.128;2023-12-14T04:24:41;14.65;;;6.97;;
84307;SDS011;74486;52.070;5.128;2023-12-14T04:27:06;16.67;;;6.28;;
84307;SDS011;74486;52.070;5.128;2023-12-14T04:29:32;11.43;;;6.25;;
84307;SDS011;74486;52.070;5.128;2023-12-14T04:31:57;10.27;;;5.13;;
84307;SDS011;74486;52.070;5.128;2023-12-14T04:34:23;15.38;;;5.85;;
84307;SDS011;74486;52.070;5.128;2023-12-14T04:36:49;11.27;;;4.95;;
84307;SDS011;74486;52.070;5.128;2023-12-14T04:39:16;12.02;;;5.25;;
84307;SDS011;74486;52.070;5.128;2023-12-14T04:41:42;9.95;;;5.10;;
84307;SDS011;74486;52.070;5.128;2023-12-14T04:44:07;9.65;;;5.38;;
84307;SDS011;74486;52.070;5.128;2023-12-14T04:46:33;9.82;;;4.50;;
84307;SDS011;74486;52.070;5.128;2023-12-14T04:48:58;10.82;;;5.30;;
84307;SDS011;74486;52.070;5.128;2023-12-14T04:51:24;10.82;;;5.07;;
84307;SDS011;74486;52.070;5.128;2023-12-14T04:53:49;11.65;;;4.97;;
84307;SDS011;74486;52.070;5.128;2023-12-14T04:56:16;9.00;;;4.28;;
84307;SDS011;74486;52.070;5.128;2023-12-14T04:58:42;9.57;;;5.07;;
84307;SDS011;74486;52.070;5.128;2023-12-14T05:01:07;11.55;;;5.03;;
84307;SDS011;74486;52.070;5.128;2023-12-14T05:03:33;10.73;;;4.68;;
84307;SDS011;74486;52.070;5.128;2023-12-14T05:05:59;12.80;;;5.05;;
84307;SDS011;74486;52.070;5.128;2023-12-14T05:08:25;9.35;;;4.35;;
84307;SDS011;74486;52.070;5.128;2023-12-14T05:10:51;10.25;;;4.22;;
84307;SDS011;74486;52.070;5.128;2023-12-14T05:13:17;8.77;;;4.50;;
84307;SDS011;74486;52.070;5.128;2023-12-14T05:15:43;10.07;;;4.90;;
84307;SDS011;74486;52.070;5.128;2023-12-14T05:18:09;10.23;;;4.88;;
84307;SDS011;74486;52.070;5.128;2023-12-14T05:20:35;11.13;;;5.45;;
84307;SDS011;74486;52.070;5.128;2023-12-14T05:23:01;9.88;;;5.50;;
84307;SDS011;74486;52.070;5.128;2023-12-14T05:25:27;10.10;;;5.38;;
84307;SDS011;74486;52.070;5.128;2023-12-14T05:27:52;10.13;;;6.05;;
84307;SDS011;74486;52.070;5.128;2023-12-14T05:30:19;11.38;;;5.45;;
84307;SDS011;74486;52.070;5.128;2023-12-14T05:32:45;11.00;;;4.95;;
84307;SDS011;74486;52.070;5.128;2023-12-14T05:35:10;8.15;;;5.15;;
84307;SDS011;74486;52.070;5.128;2023-12-14T05:37:38;9.55;;;5.05;;
84307;SDS011;74486;52.070;5.128;2023-12-14T05:40:04;11.07;;;4.93;;
84307;SDS011;74486;52.070;5.128;2023-12-14T05:42:30;9.02;;;4.93;;
84307;SDS011;74486;52.070;5.128;2023-12-14T05:44:56;10.00;;;5.85;;
84307;SDS011;74486;52.070;5.128;2023-12-14T05:47:23;11.98;;;5.68;;
84307;SDS011;74486;52.070;5.128;2023-12-14T05:49:50;9.15;;;5.30;;
84307;SDS011;74486;52.070;5.128;2023-12-14T05:52:16;10.90;;;4.82;;
84307;SDS011;74486;52.070;5.128;2023-12-14T05:54:41;11.13;;;4.55;;
84307;SDS011;74486;52.070;5.128;2023-12-14T05:57:07;11.55;;;5.28;;
84307;SDS011;74486;52.070;5.128;2023-12-14T05:59:32;9.20;;;4.50;;
84307;SDS011;74486;52.070;5.128;2023-12-14T06:01:59;8.95;;;4.57;;
84307;SDS011;74486;52.070;5.128;2023-12-14T06:04:27;9.23;;;4.43;;
84307;SDS011;74486;52.070;5.128;2023-12-14T06:06:53;9.00;;;5.07;;
84307;SDS011;74486;52.070;5.128;2023-12-14T06:09:18;9.32;;;5.80;;
84307;SDS011;74486;52.070;5.128;2023-12-14T06:11:44;8.20;;;4.68;;
84307;SDS011;74486;52.070;5.128;2023-12-14T06:14:09;8.50;;;3.72;;
84307;SDS011;74486;52.070;5.128;2023-12-14T06:16:35;6.15;;;4.10;;
84307;SDS011;74486;52.070;5.128;2023-12-14T06:19:00;9.10;;;4.10;;
84307;SDS011;74486;52.070;5.128;2023-12-14T06:21:28;8.45;;;4.78;;
84307;SDS011;74486;52.070;5.128;2023-12-14T06:23:53;8.45;;;3.95;;
84307;SDS011;74486;52.070;5.128;2023-12-14T06:26:19;7.90;;;4.18;;
84307;SDS011;74486;52.070;5.128;2023-12-14T06:28:45;7.70;;;4.15;;
84307;SDS011;74486;52.070;5.128;2023-12-14T06:31:11;9.35;;;4.63;;
84307;SDS011;74486;52.070;5.128;2023-12-14T06:33:37;8.93;;;4.40;;
84307;SDS011;74486;52.070;5.128;2023-12-14T06:36:03;8.90;;;5.18;;
84307;SDS011;74486;52.070;5.128;2023-12-14T06:38:31;8.75;;;4.60;;
84307;SDS011;74486;52.070;5.128;2023-12-14T06:40:56;8.95;;;5.07;;
84307;SDS011;74486;52.070;5.128;2023-12-14T06:43:22;9.80;;;5.13;;
84307;SDS011;74486;52.070;5.128;2023-12-14T06:45:47;13.25;;;5.20;;
84307;SDS011;74486;52.070;5.128;2023-12-14T06:48:13;8.63;;;4.78;;
84307;SDS011;74486;52.070;5.128;2023-12-14T06:50:39;9.23;;;4.60;;
84307;SDS011;74486;52.070;5.128;2023-12-14T06:53:05;11.20;;;5.35;;
84307;SDS011;74486;52.070;5.128;2023-12-14T06:55:31;13.07;;;5.55;;
84307;SDS011;74486;52.070;5.128;2023-12-14T06:57:57;12.15;;;5.65;;
84307;SDS011;74486;52.070;5.128;2023-12-14T07:00:24;10.77;;;5.03;;
84307;SDS011;74486;52.070;5.128;2023-12-14T07:02:49;12.00;;;5.07;;
84307;SDS011;74486;52.070;5.128;2023-12-14T07:05:15;10.02;;;5.13;;
84307;SDS011;74486;52.070;5.128;2023-12-14T07:07:40;10.13;;;5.03;;
84307;SDS011;74486;52.070;5.128;2023-12-14T07:10:07;10.73;;;4.80;;
84307;SDS011;74486;52.070;5.128;2023-12-14T07:12:34;10.02;;;5.70;;
84307;SDS011;74486;52.070;5.128;2023-12-14T07:15:00;9.57;;;5.15;;
84307;SDS011;74486;52.070;5.128;2023-12-14T07:17:25;7.90;;;4.53;;
84307;SDS011;74486;52.070;5.128;2023-12-14T07:19:51;9.70;;;5.03;;
84307;SDS011;74486;52.070;5.128;2023-12-14T07:22:16;9.25;;;4.80;;
84307;SDS011;74486;52.070;5.128;2023-12-14T07:24:43;8.32;;;4.35;;
84307;SDS011;74486;52.070;5.128;2023-12-14T07:27:09;8.35;;;4.35;;
84307;SDS011;74486;52.070;5.128;2023-12-14T07:29:36;7.47;;;4.00;;
84307;SDS011;74486;52.070;5.128;2023-12-14T07:32:01;11.52;;;4.88;;
84307;SDS011;74486;52.070;5.128;2023-12-14T07:34:27;8.32;;;3.97;;
84307;SDS011;74486;52.070;5.128;2023-12-14T07:36:53;6.95;;;4.25;;
84307;SDS011;74486;52.070;5.128;2023-12-14T07:39:18;7.72;;;4.45;;
84307;SDS011;74486;52.070;5.128;2023-12-14T07:41:44;8.32;;;4.40;;
84307;SDS011;74486;52.070;5.128;2023-12-14T07:44:10;10.43;;;5.50;;
84307;SDS011;74486;52.070;5.128;2023-12-14T07:46:40;9.15;;;4.55;;
84307;SDS011;74486;52.070;5.128;2023-12-14T07:49:07;10.57;;;5.32;;
84307;SDS011;74486;52.070;5.128;2023-12-14T07:51:32;8.75;;;5.03;;
84307;SDS011;74486;52.070;5.128;2023-12-14T07:53:58;7.75;;;4.65;;
84307;SDS011;74486;52.070;5.128;2023-12-14T07:56:23;9.55;;;4.82;;
84307;SDS011;74486;52.070;5.128;2023-12-14T07:58:49;8.52;;;4.45;;
84307;SDS011;74486;52.070;5.128;2023-12-14T08:01:15;8.55;;;4.65;;
84307;SDS011;74486;52.070;5.128;2023-12-14T08:03:41;8.45;;;4.35;;
84307;SDS011;74486;52.070;5.128;2023-12-14T08:06:07;9.05;;;4.90;;
84307;SDS011;74486;52.070;5.128;2023-12-14T08:08:33;7.72;;;5.03;;
84307;SDS011;74486;52.070;5.128;2023-12-14T08:10:58;8.05;;;4.72;;
84307;SDS011;74486;52.070;5.128;2023-12-14T08:13:25;8.43;;;5.15;;
84307;SDS011;74486;52.070;5.128;2023-12-14T08:15:53;8.75;;;4.45;;
84307;SDS011;74486;52.070;5.128;2023-12-14T08:18:21;9.25;;;4.80;;
84307;SDS011;74486;52.070;5.128;2023-12-14T08:20:50;9.18;;;4.82;;
84307;SDS011;74486;52.070;5.128;2023-12-14T08:23:16;9.73;;;5.35;;
84307;SDS011;74486;52.070;5.128;2023-12-14T08:25:41;9.60;;;5.65;;
84307;SDS011;74486;52.070;5.128;2023-12-14T08:28:07;8.57;;;4.57;;
84307;SDS011;74486;52.070;5.128;2023-12-14T08:30:33;10.15;;;5.47;;
84307;SDS011;74486;52.070;5.128;2023-12-14T08:32:59;7.40;;;4.65;;
84307;SDS011;74486;52.070;5.128;2023-12-14T08:35:24;7.32;;;4.43;;
84307;SDS011;74486;52.070;5.128;2023-12-14T08:37:51;8.60;;;5.30;;
84307;SDS011;74486;52.070;5.128;2023-12-14T08:40:18;7.85;;;4.68;;
84307;SDS011;74486;52.070;5.128;2023-12-14T08:42:43;7.82;;;4.88;;
84307;SDS011;74486;52.070;5.128;2023-12-14T08:45:09;9.55;;;5.43;;
84307;SDS011;74486;52.070;5.128;2023-12-14T08:47:35;9.05;;;4.63;;
84307;SDS011;74486;52.070;5.128;2023-12-14T08:50:00;9.43;;;5.20;;
84307;SDS011;74486;52.070;5.128;2023-12-14T08:52:26;7.07;;;4.55;;
84307;SDS011;74486;52.070;5.128;2023-12-14T08:54:53;7.38;;;4.65;;
84307;SDS011;74486;52.070;5.128;2023-12-14T08:57:18;6.88;;;4.80;;
84307;SDS011;74486;52.070;5.128;2023-12-14T08:59:44;7.47;;;4.82;;
84307;SDS011;74486;52.070;5.128;2023-12-14T09:02:09;7.78;;;4.53;;
84307;SDS011;74486;52.070;5.128;2023-12-14T09:04:35;7.57;;;4.57;;
84307;SDS011;74486;52.070;5.128;2023-12-14T09:07:00;9.10;;;4.85;;
84307;SDS011;74486;52.070;5.128;2023-12-14T09:09:26;9.95;;;5.10;;
84307;SDS011;74486;52.070;5.128;2023-12-14T09:11:55;6.97;;;4.50;;
84307;SDS011;74486;52.070;5.128;2023-12-14T09:14:21;7.45;;;4.05;;
84307;SDS011;74486;52.070;5.128;2023-12-14T09:16:47;9.90;;;4.78;;
84307;SDS011;74486;52.070;5.128;2023-12-14T09:19:13;10.68;;;4.60;;
84307;SDS011;74486;52.070;5.128;2023-12-14T09:21:38;6.93;;;3.65;;
84307;SDS011;74486;52.070;5.128;2023-12-14T09:24:04;7.82;;;4.28;;
84307;SDS011;74486;52.070;5.128;2023-12-14T09:26:29;9.48;;;4.25;;
84307;SDS011;74486;52.070;5.128;2023-12-14T09:28:59;9.68;;;4.97;;
84307;SDS011;74486;52.070;5.128;2023-12-14T09:31:25;6.72;;;4.93;;
84307;SDS011;74486;52.070;5.128;2023-12-14T09:33:50;7.57;;;4.25;;
84307;SDS011;74486;52.070;5.128;2023-12-14T09:36:16;9.32;;;4.07;;
84307;SDS011;74486;52.070;5.128;2023-12-14T09:38:42;5.75;;;3.72;;
84307;SDS011;74486;52.070;5.128;2023-12-14T09:41:07;6.03;;;3.60;;
84307;SDS011;74486;52.070;5.128;2023-12-14T09:43:33;5.82;;;3.72;;
84307;SDS011;74486;52.070;5.128;2023-12-14T09:46:00;6.97;;;3.65;;
84307;SDS011;74486;52.070;5.128;2023-12-14T09:50:53;7.47;;;4.10;;
84307;SDS011;74486;52.070;5.128;2023-12-14T09:53:19;6.80;;;3.25;;
84307;SDS011;74486;52.070;5.128;2023-12-14T09:55:44;6.65;;;3.08;;
84307;SDS011;74486;52.070;5.128;2023-12-14T09:58:10;5.30;;;2.97;;
84307;SDS011;74486;52.070;5.128;2023-12-14T10:00:36;5.57;;;3.00;;
84307;SDS011;74486;52.070;5.128;2023-12-14T10:03:22;4.38;;;3.10;;
84307;SDS011;74486;52.070;5.128;2023-12-14T10:05:49;6.43;;;3.28;;
84307;SDS011;74486;52.070;5.128;2023-12-14T10:08:15;6.13;;;3.33;;
84307;SDS011;74486;52.070;5.128;2023-12-14T10:10:40;5.10;;;3.20;;
84307;SDS011;74486;52.070;5.128;2023-12-14T10:13:06;4.90;;;2.78;;
84307;SDS011;74486;52.070;5.128;2023-12-14T10:15:39;4.18;;;2.55;;
84307;SDS011;74486;52.070;5.128;2023-12-14T10:18:06;3.88;;;2.55;;
84307;SDS011;74486;52.070;5.128;2023-12-14T10:20:33;5.25;;;2.90;;
84307;SDS011;74486;52.070;5.128;2023-12-14T10:22:58;6.03;;;2.95;;
84307;SDS011;74486;52.070;5.128;2023-12-14T10:25:24;5.00;;;2.72;;
84307;SDS011;74486;52.070;5.128;2023-12-14T10:27:50;6.88;;;3.20;;
84307;SDS011;74486;52.070;5.128;2023-12-14T10:30:16;3.53;;;3.22;;
84307;SDS011;74486;52.070;5.128;2023-12-14T10:32:42;4.70;;;2.90;;
84307;SDS011;74486;52.070;5.128;2023-12-14T10:35:08;4.85;;;3.35;;
84307;SDS011;74486;52.070;5.128;2023-12-14T10:37:36;5.95;;;3.45;;
84307;SDS011;74486;52.070;5.128;2023-12-14T10:40:03;4.22;;;2.45;;
84307;SDS011;74486;52.070;5.128;2023-12-14T10:42:31;7.30;;;3.13;;
84307;SDS011;74486;52.070;5.128;2023-12-14T10:45:00;5.35;;;3.17;;
84307;SDS011;74486;52.070;5.128;2023-12-14T10:47:28;6.38;;;3.60;;
84307;SDS011;74486;52.070;5.128;2023-12-14T10:49:54;5.95;;;3.20;;
84307;SDS011;74486;52.070;5.128;2023-12-14T10:52:21;4.85;;;3.13;;
84307;SDS011;74486;52.070;5.128;2023-12-14T10:54:50;5.05;;;3.20;;
84307;SDS011;74486;52.070;5.128;2023-12-14T10:57:21;3.95;;;2.75;;
84307;SDS011;74486;52.070;5.128;2023-12-14T10:59:48;6.28;;;2.88;;
84307;SDS011;74486;52.070;5.128;2023-12-14T11:02:14;4.68;;;3.00;;
84307;SDS011;74486;52.070;5.128;2023-12-14T11:04:55;5.43;;;2.83;;
84307;SDS011;74486;52.070;5.128;2023-12-14T11:10:09;4.03;;;2.38;;
84307;SDS011;74486;52.070;5.128;2023-12-14T11:12:34;6.25;;;2.92;;
84307;SDS011;74486;52.070;5.128;2023-12-14T11:15:00;5.00;;;3.42;;
84307;SDS011;74486;52.070;5.128;2023-12-14T11:17:25;5.25;;;2.85;;
84307;SDS011;74486;52.070;5.128;2023-12-14T11:19:51;5.70;;;2.47;;
84307;SDS011;74486;52.070;5.128;2023-12-14T11:22:23;5.60;;;3.33;;
84307;SDS011;74486;52.070;5.128;2023-12-14T11:24:52;6.15;;;3.28;;
84307;SDS011;74486;52.070;5.128;2023-12-14T11:27:22;5.45;;;3.15;;
84307;SDS011;74486;52.070;5.128;2023-12-14T11:29:52;3.95;;;3.10;;
84307;SDS011;74486;52.070;5.128;2023-12-14T11:32:17;4.40;;;2.63;;
84307;SDS011;74486;52.070;5.128;2023-12-14T11:34:43;5.15;;;2.72;;
84307;SDS011;74486;52.070;5.128;2023-12-14T11:37:11;4.65;;;2.78;;
84307;SDS011;74486;52.070;5.128;2023-12-14T11:39:36;5.30;;;2.90;;
84307;SDS011;74486;52.070;5.128;2023-12-14T11:42:02;6.20;;;3.15;;
84307;SDS011;74486;52.070;5.128;2023-12-14T11:44:31;5.32;;;2.70;;
84307;SDS011;74486;52.070;5.128;2023-12-14T11:46:56;5.53;;;3.28;;
84307;SDS011;74486;52.070;5.128;2023-12-14T11:49:24;5.88;;;3.03;;
84307;SDS011;74486;52.070;5.128;2023-12-14T11:51:50;5.40;;;2.63;;
84307;SDS011;74486;52.070;5.128;2023-12-14T11:54:16;4.72;;;3.25;;
84307;SDS011;74486;52.070;5.128;2023-12-14T11:56:45;8.27;;;3.20;;
84307;SDS011;74486;52.070;5.128;2023-12-14T11:59:11;7.30;;;3.53;;
84307;SDS011;74486;52.070;5.128;2023-12-14T12:01:38;6.30;;;3.70;;
84307;SDS011;74486;52.070;5.128;2023-12-14T12:04:08;6.50;;;3.78;;
84307;SDS011;74486;52.070;5.128;2023-12-14T12:06:35;7.43;;;3.90;;
84307;SDS011;74486;52.070;5.128;2023-12-14T12:09:00;5.78;;;3.58;;
84307;SDS011;74486;52.070;5.128;2023-12-14T12:11:26;5.68;;;3.40;;
84307;SDS011;74486;52.070;5.128;2023-12-14T12:13:52;7.68;;;3.83;;
84307;SDS011;74486;52.070;5.128;2023-12-14T12:16:18;9.07;;;3.53;;
84307;SDS011;74486;52.070;5.128;2023-12-14T12:18:44;7.90;;;3.85;;
84307;SDS011;74486;52.070;5.128;2023-12-14T12:21:10;6.40;;;3.85;;
84307;SDS011;74486;52.070;5.128;2023-12-14T12:23:36;11.40;;;4.10;;
84307;SDS011;74486;52.070;5.128;2023-12-14T12:26:01;5.93;;;3.85;;
84307;SDS011;74486;52.070;5.128;2023-12-14T12:28:27;7.15;;;4.28;;
84307;SDS011;74486;52.070;5.128;2023-12-14T12:30:54;7.20;;;3.78;;
84307;SDS011;74486;52.070;5.128;2023-12-14T12:33:20;6.53;;;3.83;;
84307;SDS011;74486;52.070;5.128;2023-12-14T12:35:47;6.57;;;4.07;;
84307;SDS011;74486;52.070;5.128;2023-12-14T12:38:12;6.72;;;4.40;;
84307;SDS011;74486;52.070;5.128;2023-12-14T12:40:38;9.85;;;4.53;;
84307;SDS011;74486;52.070;5.128;2023-12-14T12:43:03;7.60;;;4.03;;
84307;SDS011;74486;52.070;5.128;2023-12-14T12:45:29;6.95;;;4.53;;
84307;SDS011;74486;52.070;5.128;2023-12-14T12:47:54;9.75;;;4.60;;
84307;SDS011;74486;52.070;5.128;2023-12-14T12:50:20;7.18;;;4.15;;
84307;SDS011;74486;52.070;5.128;2023-12-14T12:52:47;8.98;;;4.72;;
84307;SDS011;74486;52.070;5.128;2023-12-14T12:55:12;9.30;;;4.70;;
84307;SDS011;74486;52.070;5.128;2023-12-14T12:57:38;11.00;;;5.00;;
84307;SDS011;74486;52.070;5.128;2023-12-14T13:00:04;9.45;;;5.07;;
84307;SDS011;74486;52.070;5.128;2023-12-14T13:02:30;9.23;;;5.28;;
84307;SDS011;74486;52.070;5.128;2023-12-14T13:04:55;9.02;;;5.03;;
84307;SDS011;74486;52.070;5.128;2023-12-14T13:07:21;8.85;;;5.60;;
84307;SDS011;74486;52.070;5.128;2023-12-14T13:09:48;10.30;;;5.95;;
84307;SDS011;74486;52.070;5.128;2023-12-14T13:12:13;9.30;;;5.57;;
84307;SDS011;74486;52.070;5.128;2023-12-14T13:14:39;11.02;;;4.75;;
84307;SDS011;74486;52.070;5.128;2023-12-14T13:17:05;10.20;;;5.82;;
84307;SDS011;74486;52.070;5.128;2023-12-14T13:19:30;7.75;;;4.63;;
84307;SDS011;74486;52.070;5.128;2023-12-14T13:21:56;10.18;;;5.15;;
84307;SDS011;74486;52.070;5.128;2023-12-14T13:24:21;10.23;;;5.82;;
84307;SDS011;74486;52.070;5.128;2023-12-14T13:26:49;10.88;;;5.60;;
84307;SDS011;74486;52.070;5.128;2023-12-14T13:29:14;10.27;;;5.13;;
84307;SDS011;74486;52.070;5.128;2023-12-14T13:31:40;11.23;;;5.32;;
84307;SDS011;74486;52.070;5.128;2023-12-14T13:34:05;9.70;;;5.43;;
84307;SDS011;74486;52.070;5.128;2023-12-14T13:36:31;10.05;;;5.13;;
84307;SDS011;74486;52.070;5.128;2023-12-14T13:38:57;10.93;;;5.40;;
84307;SDS011;74486;52.070;5.128;2023-12-14T13:41:22;11.27;;;4.88;;
84307;SDS011;74486;52.070;5.128;2023-12-14T13:43:49;11.57;;;5.88;;
84307;SDS011;74486;52.070;5.128;2023-12-14T13:46:14;10.55;;;5.38;;
84307;SDS011;74486;52.070;5.128;2023-12-14T13:48:40;9.10;;;4.68;;
84307;SDS011;74486;52.070;5.128;2023-12-14T13:51:06;10.07;;;5.28;;
84307;SDS011;74486;52.070;5.128;2023-12-14T13:53:32;12.38;;;6.30;;
84307;SDS011;74486;52.070;5.128;2023-12-14T13:55:57;11.00;;;4.75;;
84307;SDS011;74486;52.070;5.128;2023-12-14T13:58:23;10.40;;;5.88;;
84307;SDS011;74486;52.070;5.128;2023-12-14T14:00:50;10.23;;;5.57;;
84307;SDS011;74486;52.070;5.128;2023-12-14T14:03:15;10.02;;;5.00;;
84307;SDS011;74486;52.070;5.128;2023-12-14T14:05:41;10.50;;;5.05;;
84307;SDS011;74486;52.070;5.128;2023-12-14T14:08:06;7.35;;;4.55;;
84307;SDS011;74486;52.070;5.128;2023-12-14T14:10:32;9.32;;;5.05;;
84307;SDS011;74486;52.070;5.128;2023-12-14T14:12:57;9.55;;;4.78;;
84307;SDS011;74486;52.070;5.128;2023-12-14T14:15:23;10.38;;;5.70;;
84307;SDS011;74486;52.070;5.128;2023-12-14T14:17:50;12.00;;;5.05;;
84307;SDS011;74486;52.070;5.128;2023-12-14T14:20:15;8.00;;;5.07;;
84307;SDS011;74486;52.070;5.128;2023-12-14T14:22:41;9.80;;;5.18;;
84307;SDS011;74486;52.070;5.128;2023-12-14T14:25:06;8.55;;;4.90;;
84307;SDS011;74486;52.070;5.128;2023-12-14T14:27:32;10.05;;;4.93;;
84307;SDS011;74486;52.070;5.128;2023-12-14T14:29:59;9.82;;;5.13;;
84307;SDS011;74486;52.070;5.128;2023-12-14T14:32:26;10.13;;;4.93;;
84307;SDS011;74486;52.070;5.128;2023-12-14T14:34:53;10.00;;;5.28;;
84307;SDS011;74486;52.070;5.128;2023-12-14T14:37:18;10.68;;;5.10;;
84307;SDS011;74486;52.070;5.128;2023-12-14T14:39:44;11.63;;;5.45;;
84307;SDS011;74486;52.070;5.128;2023-12-14T14:42:10;11.07;;;5.80;;